sensor_id;sensor_type;location;lat;lon;timestamp;pressure;altitude;pressure_sealevel;temperature;humidity
10476;BME280;26166;48.264;11.436;2023-03-20T00:02:52;96386.69;;;11.04;66.54
10476;BME280;26166;48.264;11.436;2023-03-20T00:05:52;96381.41;;;11.04;66.54
10476;BME280;26166;48.264;11.436;2023-03-20T00:08:53;96386.69;;;11.04;66.69
10476;BME280;26166;48.264;11.436;2023-03-20T00:11:54;96386.69;;;11.04;66.44
10476;BME280;26166;48.264;11.436;2023-03-20T00:14:54;96388.63;;;11.02;66.92
10476;BME280;26166;48.264;11.436;2023-03-20T00:17:54;96391.25;;;11.02;66.72
10476;BME280;26166;48.264;11.436;2023-03-20T00:20:55;96397.50;;;11.01;66.93
10476;BME280;26166;48.264;11.436;2023-03-20T00:23:55;96397.38;;;11.02;66.57
10476;BME280;26166;48.264;11.436;2023-03-20T00:26:55;96397.50;;;11.01;66.99
10476;BME280;26166;48.264;11.436;2023-03-20T00:29:56;96392.25;;;11.01;66.89
10476;BME280;26166;48.264;11.436;2023-03-20T00:32:57;96393.91;;;11.02;66.87
10476;BME280;26166;48.264;11.436;2023-03-20T00:35:57;96386.00;;;11.02;66.79
10476;BME280;26166;48.264;11.436;2023-03-20T00:38:58;96386.19;;;11.00;67.22
10476;BME280;26166;48.264;11.436;2023-03-20T00:42:01;96385.38;;;11.00;66.86
10476;BME280;26166;48.264;11.436;2023-03-20T00:45:03;96389.63;;;11.01;66.92
10476;BME280;26166;48.264;11.436;2023-03-20T00:48:04;96389.00;;;10.99;67.02
10476;BME280;26166;48.264;11.436;2023-03-20T00:51:04;96401.13;;;11.00;67.50
10476;BME280;26166;48.264;11.436;2023-03-20T00:54:15;96395.88;;;11.00;66.91
10476;BME280;26166;48.264;11.436;2023-03-20T00:57:18;96398.34;;;11.01;67.15
10476;BME280;26166;48.264;11.436;2023-03-20T01:03:22;96399.16;;;11.02;66.78
10476;BME280;26166;48.264;11.436;2023-03-20T01:06:22;96392.25;;;11.01;67.18
10476;BME280;26166;48.264;11.436;2023-03-20T01:09:23;96387.19;;;10.99;67.10
10476;BME280;26166;48.264;11.436;2023-03-20T01:12:23;96394.25;;;10.99;67.03
10476;BME280;26166;48.264;11.436;2023-03-20T01:15:24;96389.00;;;10.99;67.11
10476;BME280;26166;48.264;11.436;2023-03-20T01:18:26;96389.00;;;10.99;67.54
10476;BME280;26166;48.264;11.436;2023-03-20T01:21:26;96386.50;;;10.97;67.59
10476;BME280;26166;48.264;11.436;2023-03-20T01:24:27;96389.31;;;10.96;67.55
10476;BME280;26166;48.264;11.436;2023-03-20T01:27:27;96387.69;;;10.95;67.54
10476;BME280;26166;48.264;11.436;2023-03-20T01:30:28;96394.56;;;10.96;67.58
10476;BME280;26166;48.264;11.436;2023-03-20T01:33:29;96398.84;;;10.97;67.21
10476;BME280;26166;48.264;11.436;2023-03-20T01:36:30;96393.75;;;10.95;67.12
10476;BME280;26166;48.264;11.436;2023-03-20T01:39:31;96393.75;;;10.95;67.24
10476;BME280;26166;48.264;11.436;2023-03-20T01:42:32;96399.81;;;10.96;67.31
10476;BME280;26166;48.264;11.436;2023-03-20T01:45:33;96397.19;;;10.96;67.25
10476;BME280;26166;48.264;11.436;2023-03-20T01:48:54;96396.19;;;10.97;66.97
10476;BME280;26166;48.264;11.436;2023-03-20T01:51:55;96398.84;;;10.97;66.96
10476;BME280;26166;48.264;11.436;2023-03-20T01:54:55;96399.81;;;10.96;67.25
10476;BME280;26166;48.264;11.436;2023-03-20T01:57:56;96398.84;;;10.97;67.47
10476;BME280;26166;48.264;11.436;2023-03-20T02:00:58;96399.81;;;10.96;67.22
10476;BME280;26166;48.264;11.436;2023-03-20T02:03:58;96391.94;;;10.96;67.09
10476;BME280;26166;48.264;11.436;2023-03-20T02:07:00;96390.31;;;10.95;67.39
10476;BME280;26166;48.264;11.436;2023-03-20T02:10:02;96388.66;;;10.94;67.35
10476;BME280;26166;48.264;11.436;2023-03-20T02:13:02;96390.31;;;10.95;67.45
10476;BME280;26166;48.264;11.436;2023-03-20T02:16:08;96386.69;;;10.96;67.19
10476;BME280;26166;48.264;11.436;2023-03-20T02:19:13;96391.94;;;10.96;67.25
10476;BME280;26166;48.264;11.436;2023-03-20T02:25:30;96386.03;;;10.94;67.19
10476;BME280;26166;48.264;11.436;2023-03-20T02:28:50;96386.84;;;10.94;67.45
10476;BME280;26166;48.264;11.436;2023-03-20T02:38:42;96389.31;;;10.96;66.88
10476;BME280;26166;48.264;11.436;2023-03-20T02:45:13;96386.38;;;10.99;66.83
10476;BME280;26166;48.264;11.436;2023-03-20T03:01:10;96385.38;;;11.00;66.54
10476;BME280;26166;48.264;11.436;2023-03-20T03:04:23;96387.00;;;11.01;66.32
10476;BME280;26166;48.264;11.436;2023-03-20T03:07:27;96398.50;;;11.00;66.54
10476;BME280;26166;48.264;11.436;2023-03-20T03:10:30;96396.88;;;10.99;66.67
10476;BME280;26166;48.264;11.436;2023-03-20T03:13:35;96395.06;;;10.99;66.57
10476;BME280;26166;48.264;11.436;2023-03-20T03:16:36;96394.25;;;10.99;66.29
10476;BME280;26166;48.264;11.436;2023-03-20T03:19:37;96401.97;;;11.00;66.12
10476;BME280;26166;48.264;11.436;2023-03-20T03:22:40;96410.00;;;10.99;66.56
10476;BME280;26166;48.264;11.436;2023-03-20T03:25:41;96408.34;;;10.98;66.29
10476;BME280;26166;48.264;11.436;2023-03-20T03:28:42;96411.97;;;10.97;66.30
10476;BME280;26166;48.264;11.436;2023-03-20T03:31:43;96410.34;;;10.96;66.77
10476;BME280;26166;48.264;11.436;2023-03-20T03:34:44;96413.97;;;10.95;66.60
10476;BME280;26166;48.264;11.436;2023-03-20T03:40:51;96417.91;;;10.91;67.07
10476;BME280;26166;48.264;11.436;2023-03-20T03:44:03;96415.09;;;10.92;66.90
10476;BME280;26166;48.264;11.436;2023-03-20T03:47:10;96419.34;;;10.93;66.68
10476;BME280;26166;48.264;11.436;2023-03-20T03:50:28;96415.09;;;10.92;66.55
10476;BME280;26166;48.264;11.436;2023-03-20T03:53:30;96419.53;;;10.92;66.74
10476;BME280;26166;48.264;11.436;2023-03-20T03:56:31;96425.59;;;10.92;66.48
10476;BME280;26166;48.264;11.436;2023-03-20T03:59:35;96414.28;;;10.92;66.59
10476;BME280;26166;48.264;11.436;2023-03-20T04:02:36;96431.69;;;10.93;66.56
10476;BME280;26166;48.264;11.436;2023-03-20T04:05:37;96430.06;;;10.92;66.58
10476;BME280;26166;48.264;11.436;2023-03-20T04:08:39;96429.06;;;10.93;66.59
10476;BME280;26166;48.264;11.436;2023-03-20T04:11:40;96429.06;;;10.93;66.52
10476;BME280;26166;48.264;11.436;2023-03-20T04:14:40;96429.22;;;10.91;66.48
10476;BME280;26166;48.264;11.436;2023-03-20T04:17:41;96428.41;;;10.91;65.97
10476;BME280;26166;48.264;11.436;2023-03-20T04:20:42;96434.66;;;10.90;66.33
10476;BME280;26166;48.264;11.436;2023-03-20T04:23:42;96435.63;;;10.89;65.93
10476;BME280;26166;48.264;11.436;2023-03-20T04:26:42;96438.94;;;10.91;66.16
10476;BME280;26166;48.264;11.436;2023-03-20T04:29:42;96441.56;;;10.91;66.14
10476;BME280;26166;48.264;11.436;2023-03-20T04:32:43;96451.06;;;10.92;66.29
10476;BME280;26166;48.264;11.436;2023-03-20T04:35:43;96438.94;;;10.91;66.06
10476;BME280;26166;48.264;11.436;2023-03-20T04:38:44;96443.50;;;10.89;65.96
10476;BME280;26166;48.264;11.436;2023-03-20T04:41:44;96449.75;;;10.88;66.13
10476;BME280;26166;48.264;11.436;2023-03-20T04:44:44;96449.75;;;10.88;65.75
10476;BME280;26166;48.264;11.436;2023-03-20T04:47:44;96449.75;;;10.88;65.72
10476;BME280;26166;48.264;11.436;2023-03-20T04:50:45;96455.81;;;10.88;65.80
10476;BME280;26166;48.264;11.436;2023-03-20T04:53:47;96456.81;;;10.87;66.00
10476;BME280;26166;48.264;11.436;2023-03-20T04:56:47;96455.00;;;10.88;65.78
10476;BME280;26166;48.264;11.436;2023-03-20T04:59:47;96453.38;;;10.86;65.99
10476;BME280;26166;48.264;11.436;2023-03-20T05:02:47;96457.81;;;10.86;65.82
10476;BME280;26166;48.264;11.436;2023-03-20T05:05:48;96457.81;;;10.86;65.99
10476;BME280;26166;48.264;11.436;2023-03-20T05:08:48;96466.69;;;10.85;65.70
10476;BME280;26166;48.264;11.436;2023-03-20T05:11:48;96465.69;;;10.86;65.62
10476;BME280;26166;48.264;11.436;2023-03-20T05:14:48;96464.88;;;10.85;66.02
10476;BME280;26166;48.264;11.436;2023-03-20T05:17:49;96472.75;;;10.85;65.66
10476;BME280;26166;48.264;11.436;2023-03-20T05:20:49;96474.41;;;10.86;65.94
10476;BME280;26166;48.264;11.436;2023-03-20T05:23:49;96477.66;;;10.89;65.54
10476;BME280;26166;48.264;11.436;2023-03-20T05:26:49;96476.03;;;10.88;65.28
10476;BME280;26166;48.264;11.436;2023-03-20T05:29:50;96481.28;;;10.88;65.79
10476;BME280;26166;48.264;11.436;2023-03-20T05:32:50;96481.28;;;10.88;65.79
10476;BME280;26166;48.264;11.436;2023-03-20T05:35:51;96489.03;;;10.89;65.48
10476;BME280;26166;48.264;11.436;2023-03-20T05:38:51;96486.53;;;10.88;65.37
10476;BME280;26166;48.264;11.436;2023-03-20T05:41:51;96489.34;;;10.86;65.77
10476;BME280;26166;48.264;11.436;2023-03-20T05:44:52;96494.75;;;10.84;65.42
10476;BME280;26166;48.264;11.436;2023-03-20T05:47:52;96495.41;;;10.86;65.58
10476;BME280;26166;48.264;11.436;2023-03-20T05:50:52;96496.41;;;10.85;65.75
10476;BME280;26166;48.264;11.436;2023-03-20T05:53:52;96506.25;;;10.83;65.31
10476;BME280;26166;48.264;11.436;2023-03-20T05:56:52;96504.44;;;10.84;65.29
10476;BME280;26166;48.264;11.436;2023-03-20T05:59:52;96503.63;;;10.83;65.33
10476;BME280;26166;48.264;11.436;2023-03-20T06:02:53;96511.50;;;10.83;65.23
10476;BME280;26166;48.264;11.436;2023-03-20T06:05:54;96515.13;;;10.82;65.26
10476;BME280;26166;48.264;11.436;2023-03-20T06:08:55;96511.69;;;10.82;65.46
10476;BME280;26166;48.264;11.436;2023-03-20T06:11:55;96519.38;;;10.83;65.14
10476;BME280;26166;48.264;11.436;2023-03-20T06:14:55;96515.13;;;10.82;65.31
10476;BME280;26166;48.264;11.436;2023-03-20T06:17:55;96514.63;;;10.79;65.25
10476;BME280;26166;48.264;11.436;2023-03-20T06:20:56;96518.41;;;10.76;65.28
10476;BME280;26166;48.264;11.436;2023-03-20T06:23:56;96521.84;;;10.77;65.49
10476;BME280;26166;48.264;11.436;2023-03-20T06:26:58;96521.03;;;10.76;65.55
10476;BME280;26166;48.264;11.436;2023-03-20T06:29:59;96531.69;;;10.75;65.69
10476;BME280;26166;48.264;11.436;2023-03-20T06:32:59;96529.72;;;10.77;65.53
10476;BME280;26166;48.264;11.436;2023-03-20T06:35:59;96527.75;;;10.79;65.24
10476;BME280;26166;48.264;11.436;2023-03-20T06:38:59;96523.31;;;10.79;65.17
10476;BME280;26166;48.264;11.436;2023-03-20T06:42:00;96525.94;;;10.79;65.41
10476;BME280;26166;48.264;11.436;2023-03-20T06:45:00;96526.94;;;10.78;65.20
10476;BME280;26166;48.264;11.436;2023-03-20T06:48:04;96532.03;;;10.80;65.18
10476;BME280;26166;48.264;11.436;2023-03-20T06:51:06;96532.38;;;10.77;65.06
10476;BME280;26166;48.264;11.436;2023-03-20T06:54:06;96523.81;;;10.75;65.63
10476;BME280;26166;48.264;11.436;2023-03-20T06:57:07;96525.78;;;10.73;65.47
10476;BME280;26166;48.264;11.436;2023-03-20T07:00:07;96535.47;;;10.72;65.42
10476;BME280;26166;48.264;11.436;2023-03-20T07:03:09;96527.72;;;10.71;65.78
10476;BME280;26166;48.264;11.436;2023-03-20T07:06:10;96528.56;;;10.71;65.49
10476;BME280;26166;48.264;11.436;2023-03-20T07:09:11;96533.81;;;10.71;65.42
10476;BME280;26166;48.264;11.436;2023-03-20T07:12:12;96537.44;;;10.70;65.54
10476;BME280;26166;48.264;11.436;2023-03-20T07:15:16;96554.81;;;10.71;65.76
10476;BME280;26166;48.264;11.436;2023-03-20T07:18:16;96551.56;;;10.69;65.86
10476;BME280;26166;48.264;11.436;2023-03-20T07:21:19;96552.38;;;10.70;65.51
10476;BME280;26166;48.264;11.436;2023-03-20T07:24:19;96555.00;;;10.70;65.60
10476;BME280;26166;48.264;11.436;2023-03-20T07:27:21;96554.00;;;10.71;65.50
10476;BME280;26166;48.264;11.436;2023-03-20T07:30:21;96565.34;;;10.71;66.07
10476;BME280;26166;48.264;11.436;2023-03-20T07:33:21;96561.75;;;10.72;66.05
10476;BME280;26166;48.264;11.436;2023-03-20T07:36:21;96564.38;;;10.72;65.59
10476;BME280;26166;48.264;11.436;2023-03-20T07:39:22;96567.97;;;10.71;65.63
10476;BME280;26166;48.264;11.436;2023-03-20T07:42:22;96570.75;;;10.70;65.96
10476;BME280;26166;48.264;11.436;2023-03-20T07:45:22;96578.16;;;10.74;65.76
10476;BME280;26166;48.264;11.436;2023-03-20T07:48:22;96565.69;;;10.76;66.15
10476;BME280;26166;48.264;11.436;2023-03-20T07:51:23;96573.41;;;10.78;65.91
10476;BME280;26166;48.264;11.436;2023-03-20T07:54:23;96579.50;;;10.78;65.53
10476;BME280;26166;48.264;11.436;2023-03-20T07:57:23;96576.88;;;10.78;65.76
10476;BME280;26166;48.264;11.436;2023-03-20T08:00:26;96576.88;;;10.78;65.86
10476;BME280;26166;48.264;11.436;2023-03-20T08:03:26;96578.50;;;10.79;65.46
10476;BME280;26166;48.264;11.436;2023-03-20T08:06:26;96578.38;;;10.81;65.45
10476;BME280;26166;48.264;11.436;2023-03-20T08:09:27;96578.50;;;10.79;65.74
10476;BME280;26166;48.264;11.436;2023-03-20T08:12:28;96586.38;;;10.79;65.35
10476;BME280;26166;48.264;11.436;2023-03-20T08:15:28;96576.88;;;10.78;65.64
10476;BME280;26166;48.264;11.436;2023-03-20T08:18:28;96582.13;;;10.78;65.75
10476;BME280;26166;48.264;11.436;2023-03-20T08:21:29;96566.34;;;10.78;65.92
10476;BME280;26166;48.264;11.436;2023-03-20T08:24:30;96572.28;;;10.80;65.87
10476;BME280;26166;48.264;11.436;2023-03-20T08:27:30;96571.28;;;10.81;65.78
10476;BME280;26166;48.264;11.436;2023-03-20T08:30:31;96563.06;;;10.84;65.52
10476;BME280;26166;48.264;11.436;2023-03-20T08:33:31;96556.84;;;10.85;65.76
10476;BME280;26166;48.264;11.436;2023-03-20T08:36:31;96566.56;;;10.85;65.48
10476;BME280;26166;48.264;11.436;2023-03-20T08:39:31;96570.97;;;10.84;65.75
10476;BME280;26166;48.264;11.436;2023-03-20T08:42:32;96566.56;;;10.85;65.70
10476;BME280;26166;48.264;11.436;2023-03-20T08:45:32;96571.63;;;10.86;65.57
10476;BME280;26166;48.264;11.436;2023-03-20T08:48:32;96564.75;;;10.85;65.63
10476;BME280;26166;48.264;11.436;2023-03-20T08:51:32;96572.63;;;10.85;65.41
10476;BME280;26166;48.264;11.436;2023-03-20T08:54:33;96570.13;;;10.84;65.49
10476;BME280;26166;48.264;11.436;2023-03-20T08:57:33;96571.81;;;10.85;65.61
10476;BME280;26166;48.264;11.436;2023-03-20T09:00:33;96557.81;;;10.84;65.23
10476;BME280;26166;48.264;11.436;2023-03-20T09:03:33;96569.00;;;10.86;65.32
10476;BME280;26166;48.264;11.436;2023-03-20T09:06:35;96554.88;;;10.88;65.16
10476;BME280;26166;48.264;11.436;2023-03-20T09:09:35;96568.00;;;10.88;65.21
10476;BME280;26166;48.264;11.436;2023-03-20T09:12:36;96572.63;;;10.85;65.54
10476;BME280;26166;48.264;11.436;2023-03-20T09:15:36;96575.25;;;10.85;65.08
10476;BME280;26166;48.264;11.436;2023-03-20T09:18:36;96575.91;;;10.88;65.26
10476;BME280;26166;48.264;11.436;2023-03-20T09:21:36;96575.09;;;10.87;65.43
10476;BME280;26166;48.264;11.436;2023-03-20T09:24:36;96577.53;;;10.89;65.42
10476;BME280;26166;48.264;11.436;2023-03-20T09:27:37;96579.34;;;10.88;65.34
10476;BME280;26166;48.264;11.436;2023-03-20T09:30:37;96588.91;;;10.89;65.32
10476;BME280;26166;48.264;11.436;2023-03-20T09:33:38;96579.22;;;10.90;64.74
10476;BME280;26166;48.264;11.436;2023-03-20T09:36:38;96579.22;;;10.90;65.13
10476;BME280;26166;48.264;11.436;2023-03-20T09:39:38;96586.09;;;10.91;64.83
10476;BME280;26166;48.264;11.436;2023-03-20T09:45:55;96581.84;;;10.90;64.45
10476;BME280;26166;48.264;11.436;2023-03-20T09:49:16;96566.06;;;10.90;64.81
10476;BME280;26166;48.264;11.436;2023-03-20T09:52:25;96576.56;;;10.90;64.40
10476;BME280;26166;48.264;11.436;2023-03-20T09:55:30;96571.31;;;10.90;64.84
10476;BME280;26166;48.264;11.436;2023-03-20T09:58:33;96565.06;;;10.91;64.70
10476;BME280;26166;48.264;11.436;2023-03-20T10:01:38;96559.81;;;10.91;64.59
10476;BME280;26166;48.264;11.436;2023-03-20T10:04:41;96558.00;;;10.91;64.36
10476;BME280;26166;48.264;11.436;2023-03-20T10:07:42;96557.19;;;10.91;64.44
10476;BME280;26166;48.264;11.436;2023-03-20T10:14:02;96552.75;;;10.91;64.33
10476;BME280;26166;48.264;11.436;2023-03-20T10:20:30;96552.56;;;10.93;64.19
10476;BME280;26166;48.264;11.436;2023-03-20T10:23:41;96548.16;;;10.93;64.51
10476;BME280;26166;48.264;11.436;2023-03-20T10:26:48;96548.16;;;10.93;64.17
10476;BME280;26166;48.264;11.436;2023-03-20T10:39:11;96539.13;;;10.96;64.40
10476;BME280;26166;48.264;11.436;2023-03-20T10:42:15;96536.50;;;10.96;63.93
10476;BME280;26166;48.264;11.436;2023-03-20T10:48:24;96530.09;;;10.98;64.08
10476;BME280;26166;48.264;11.436;2023-03-20T10:51:33;96535.38;;;10.98;63.55
10476;BME280;26166;48.264;11.436;2023-03-20T10:54:37;96526.63;;;10.98;63.55
10476;BME280;26166;48.264;11.436;2023-03-20T10:57:41;96529.94;;;11.00;63.82
10476;BME280;26166;48.264;11.436;2023-03-20T11:00:45;96529.94;;;11.00;63.67
10476;BME280;26166;48.264;11.436;2023-03-20T11:03:46;96522.03;;;11.00;63.34
10476;BME280;26166;48.264;11.436;2023-03-20T11:13:23;96517.78;;;11.07;62.42
10476;BME280;26166;48.264;11.436;2023-03-20T11:16:28;96510.72;;;11.07;62.22
10476;BME280;26166;48.264;11.436;2023-03-20T11:19:33;96512.53;;;11.07;61.85
10476;BME280;26166;48.264;11.436;2023-03-20T11:22:33;96505.63;;;11.06;61.98
10476;BME280;26166;48.264;11.436;2023-03-20T11:25:43;96516.63;;;11.09;62.13
10476;BME280;26166;48.264;11.436;2023-03-20T11:28:46;96518.13;;;11.12;62.04
10476;BME280;26166;48.264;11.436;2023-03-20T11:31:47;96513.50;;;11.14;62.04
10476;BME280;26166;48.264;11.436;2023-03-20T11:34:48;96520.41;;;11.15;61.44
10476;BME280;26166;48.264;11.436;2023-03-20T11:37:50;96516.81;;;11.16;60.62
10476;BME280;26166;48.264;11.436;2023-03-20T11:40:50;96522.06;;;11.16;60.59
10476;BME280;26166;48.264;11.436;2023-03-20T11:43:54;96509.88;;;11.15;60.43
10476;BME280;26166;48.264;11.436;2023-03-20T11:46:55;96517.13;;;11.13;60.62
10476;BME280;26166;48.264;11.436;2023-03-20T11:49:57;96511.88;;;11.13;60.75
10476;BME280;26166;48.264;11.436;2023-03-20T11:52:59;96517.78;;;11.15;60.67
10476;BME280;26166;48.264;11.436;2023-03-20T12:02:16;96512.03;;;11.20;60.86
10476;BME280;26166;48.264;11.436;2023-03-20T12:08:21;96517.28;;;11.36;60.17
10476;BME280;26166;48.264;11.436;2023-03-20T12:17:28;96512.22;;;11.43;59.99
10476;BME280;26166;48.264;11.436;2023-03-20T12:23:56;96513.03;;;11.43;59.64
10476;BME280;26166;48.264;11.436;2023-03-20T12:33:51;96491.63;;;11.46;59.70
10476;BME280;26166;48.264;11.436;2023-03-20T12:36:54;96494.94;;;11.48;59.49
10476;BME280;26166;48.264;11.436;2023-03-20T12:39:58;96488.84;;;11.48;59.69
10476;BME280;26166;48.264;11.436;2023-03-20T12:56:25;96497.88;;;11.53;59.31
10476;BME280;26166;48.264;11.436;2023-03-20T13:12:03;96493.44;;;11.54;58.98
10476;BME280;26166;48.264;11.436;2023-03-20T13:15:13;96489.16;;;11.53;59.37
10476;BME280;26166;48.264;11.436;2023-03-20T13:18:29;96490.16;;;11.52;59.41
10476;BME280;26166;48.264;11.436;2023-03-20T13:21:32;96495.44;;;11.52;59.06
10476;BME280;26166;48.264;11.436;2023-03-20T13:24:35;96486.53;;;11.53;59.25
10476;BME280;26166;48.264;11.436;2023-03-20T13:27:41;96480.94;;;11.56;58.75
10476;BME280;26166;48.264;11.436;2023-03-20T13:30:52;96478.16;;;11.57;58.93
10476;BME280;26166;48.264;11.436;2023-03-20T13:36:58;96473.69;;;11.58;58.93
10476;BME280;26166;48.264;11.436;2023-03-20T13:43:07;96477.00;;;11.60;58.33
10476;BME280;26166;48.264;11.436;2023-03-20T13:49:35;96466.31;;;11.61;58.07
10476;BME280;26166;48.264;11.436;2023-03-20T13:52:43;96462.03;;;11.60;57.98
10476;BME280;26166;48.264;11.436;2023-03-20T13:58:56;96456.41;;;11.63;57.26
10476;BME280;26166;48.264;11.436;2023-03-20T14:05:19;96448.00;;;11.68;57.18
10476;BME280;26166;48.264;11.436;2023-03-20T14:17:26;96445.06;;;11.71;57.15
10476;BME280;26166;48.264;11.436;2023-03-20T14:26:55;96436.00;;;11.74;56.93
10476;BME280;26166;48.264;11.436;2023-03-20T14:29:56;96437.34;;;11.70;56.74
10476;BME280;26166;48.264;11.436;2023-03-20T14:36:18;96443.94;;;11.66;56.70
10476;BME280;26166;48.264;11.436;2023-03-20T14:39:21;96435.22;;;11.65;57.06
10476;BME280;26166;48.264;11.436;2023-03-20T14:42:45;96442.44;;;11.63;56.64
10476;BME280;26166;48.264;11.436;2023-03-20T14:45:51;96444.75;;;11.66;56.30
10476;BME280;26166;48.264;11.436;2023-03-20T14:48:53;96450.66;;;11.68;56.51
10476;BME280;26166;48.264;11.436;2023-03-20T15:04:38;96438.50;;;11.59;56.91
10476;BME280;26166;48.264;11.436;2023-03-20T15:07:39;96428.34;;;11.56;56.76
10476;BME280;26166;48.264;11.436;2023-03-20T15:10:45;96425.03;;;11.54;56.77
10476;BME280;26166;48.264;11.436;2023-03-20T15:13:46;96431.28;;;11.53;57.41
10476;BME280;26166;48.264;11.436;2023-03-20T15:16:47;96423.41;;;11.53;57.45
10476;BME280;26166;48.264;11.436;2023-03-20T15:19:47;96424.22;;;11.53;57.39
10476;BME280;26166;48.264;11.436;2023-03-20T15:22:54;96422.41;;;11.54;56.92
10476;BME280;26166;48.264;11.436;2023-03-20T15:25:58;96426.66;;;11.55;57.20
10476;BME280;26166;48.264;11.436;2023-03-20T15:29:00;96421.41;;;11.55;56.77
10476;BME280;26166;48.264;11.436;2023-03-20T15:32:01;96426.66;;;11.55;56.38
10476;BME280;26166;48.264;11.436;2023-03-20T15:35:02;96422.25;;;11.55;56.58
10476;BME280;26166;48.264;11.436;2023-03-20T15:38:05;96421.41;;;11.55;56.70
10476;BME280;26166;48.264;11.436;2023-03-20T15:41:07;96411.88;;;11.54;56.09
10476;BME280;26166;48.264;11.436;2023-03-20T15:47:17;96419.28;;;11.50;56.77
10476;BME280;26166;48.264;11.436;2023-03-20T15:50:20;96411.56;;;11.49;56.83
10476;BME280;26166;48.264;11.436;2023-03-20T15:53:28;96408.94;;;11.49;56.86
10476;BME280;26166;48.264;11.436;2023-03-20T15:56:37;96416.84;;;11.49;57.24
10476;BME280;26166;48.264;11.436;2023-03-20T15:59:42;96409.94;;;11.48;57.01
10476;BME280;26166;48.264;11.436;2023-03-20T16:02:43;96406.63;;;11.46;56.63
10476;BME280;26166;48.264;11.436;2023-03-20T16:05:48;96406.63;;;11.46;57.08
10476;BME280;26166;48.264;11.436;2023-03-20T16:09:00;96400.91;;;11.42;56.84
10476;BME280;26166;48.264;11.436;2023-03-20T16:12:01;96404.69;;;11.40;56.98
10476;BME280;26166;48.264;11.436;2023-03-20T16:15:02;96400.44;;;11.39;57.17
10476;BME280;26166;48.264;11.436;2023-03-20T16:18:04;96400.44;;;11.39;57.08
10476;BME280;26166;48.264;11.436;2023-03-20T16:21:07;96401.72;;;11.43;57.14
10476;BME280;26166;48.264;11.436;2023-03-20T16:24:09;96403.03;;;11.47;56.67
10476;BME280;26166;48.264;11.436;2023-03-20T16:27:18;96406.31;;;11.49;56.50
10476;BME280;26166;48.264;11.436;2023-03-20T16:30:24;96404.31;;;11.51;56.42
10476;BME280;26166;48.264;11.436;2023-03-20T16:33:25;96410.25;;;11.53;56.52
10476;BME280;26166;48.264;11.436;2023-03-20T16:36:31;96407.63;;;11.53;56.48
10476;BME280;26166;48.264;11.436;2023-03-20T16:39:31;96404.00;;;11.54;55.88
10476;BME280;26166;48.264;11.436;2023-03-20T16:42:32;96405.63;;;11.55;55.94
10476;BME280;26166;48.264;11.436;2023-03-20T16:45:33;96404.81;;;11.54;56.29
10476;BME280;26166;48.264;11.436;2023-03-20T16:48:34;96410.88;;;11.55;56.51
10476;BME280;26166;48.264;11.436;2023-03-20T16:51:36;96410.88;;;11.55;56.08
10476;BME280;26166;48.264;11.436;2023-03-20T16:54:37;96413.53;;;11.55;56.09
10476;BME280;26166;48.264;11.436;2023-03-20T16:57:37;96411.88;;;11.54;56.58
10476;BME280;26166;48.264;11.436;2023-03-20T17:00:41;96419.78;;;11.54;56.14
10476;BME280;26166;48.264;11.436;2023-03-20T17:06:45;96421.78;;;11.52;56.65
10476;BME280;26166;48.264;11.436;2023-03-20T17:13:04;96429.00;;;11.50;56.31
10476;BME280;26166;48.264;11.436;2023-03-20T17:16:09;96425.53;;;11.49;56.99
10476;BME280;26166;48.264;11.436;2023-03-20T17:19:14;96425.72;;;11.48;56.78
10476;BME280;26166;48.264;11.436;2023-03-20T17:22:15;96427.34;;;11.49;56.60
10476;BME280;26166;48.264;11.436;2023-03-20T17:25:16;96426.72;;;11.47;56.75
10476;BME280;26166;48.264;11.436;2023-03-20T17:28:17;96424.09;;;11.47;56.96
10476;BME280;26166;48.264;11.436;2023-03-20T17:31:19;96426.72;;;11.47;56.91
10476;BME280;26166;48.264;11.436;2023-03-20T17:34:19;96418.81;;;11.47;57.20
10476;BME280;26166;48.264;11.436;2023-03-20T17:37:23;96430.31;;;11.46;57.29
10476;BME280;26166;48.264;11.436;2023-03-20T17:40:24;96430.31;;;11.46;57.47
10476;BME280;26166;48.264;11.436;2023-03-20T17:43:26;96431.31;;;11.45;57.40
10476;BME280;26166;48.264;11.436;2023-03-20T17:46:27;96434.94;;;11.44;57.56
10476;BME280;26166;48.264;11.436;2023-03-20T17:49:27;96427.03;;;11.44;57.41
10476;BME280;26166;48.264;11.436;2023-03-20T17:52:27;96435.94;;;11.43;57.47
10476;BME280;26166;48.264;11.436;2023-03-20T17:55:28;96433.28;;;11.43;57.68
10476;BME280;26166;48.264;11.436;2023-03-20T17:58:28;96429.84;;;11.42;57.72
10476;BME280;26166;48.264;11.436;2023-03-20T18:01:28;96429.84;;;11.42;57.44
10476;BME280;26166;48.264;11.436;2023-03-20T18:04:28;96435.25;;;11.41;57.59
10476;BME280;26166;48.264;11.436;2023-03-20T18:07:29;96437.25;;;11.39;57.77
10476;BME280;26166;48.264;11.436;2023-03-20T18:10:30;96430.31;;;11.37;57.52
10476;BME280;26166;48.264;11.436;2023-03-20T18:13:33;96441.03;;;11.36;57.92
10476;BME280;26166;48.264;11.436;2023-03-20T18:16:34;96435.94;;;11.34;57.99
10476;BME280;26166;48.264;11.436;2023-03-20T18:19:35;96425.41;;;11.34;58.00
10476;BME280;26166;48.264;11.436;2023-03-20T18:22:35;96438.72;;;11.33;57.91
10476;BME280;26166;48.264;11.436;2023-03-20T18:25:35;96429.19;;;11.32;57.94
10476;BME280;26166;48.264;11.436;2023-03-20T18:28:36;96437.91;;;11.32;57.99
10476;BME280;26166;48.264;11.436;2023-03-20T18:31:36;96440.69;;;11.31;58.32
10476;BME280;26166;48.264;11.436;2023-03-20T18:34:36;96438.25;;;11.29;57.97
10476;BME280;26166;48.264;11.436;2023-03-20T18:37:38;96434.63;;;11.30;58.27
10476;BME280;26166;48.264;11.436;2023-03-20T18:40:38;96441.53;;;11.31;58.35
10476;BME280;26166;48.264;11.436;2023-03-20T18:43:39;96438.88;;;11.31;58.32